sensor_id;sensor_type;location;lat;lon;timestamp;P1;durP1;ratioP1;P2;durP2;ratioP2
37983;SDS011;64625;50.882;4.376;2023-06-10T00:01:53;12.73;;;6.57;;
37983;SDS011;64625;50.882;4.376;2023-06-10T00:04:25;9.73;;;6.30;;
37983;SDS011;64625;50.882;4.376;2023-06-10T00:06:52;7.97;;;5.40;;
37983;SDS011;64625;50.882;4.376;2023-06-10T00:09:19;10.07;;;6.38;;
37983;SDS011;64625;50.882;4.376;2023-06-10T00:11:46;8.18;;;6.25;;
37983;SDS011;64625;50.882;4.376;2023-06-10T00:14:12;9.82;;;6.28;;
37983;SDS011;64625;50.882;4.376;2023-06-10T00:16:38;9.10;;;5.50;;
37983;SDS011;64625;50.882;4.376;2023-06-10T00:19:04;11.82;;;6.55;;
37983;SDS011;64625;50.882;4.376;2023-06-10T00:21:31;11.95;;;6.50;;
37983;SDS011;64625;50.882;4.376;2023-06-10T00:24:07;10.82;;;6.10;;
37983;SDS011;64625;50.882;4.376;2023-06-10T00:26:39;11.25;;;5.90;;
37983;SDS011;64625;50.882;4.376;2023-06-10T00:29:06;8.45;;;6.03;;
37983;SDS011;64625;50.882;4.376;2023-06-10T00:31:33;9.07;;;7.85;;
37983;SDS011;64625;50.882;4.376;2023-06-10T00:33:59;9.30;;;6.90;;
37983;SDS011;64625;50.882;4.376;2023-06-10T00:36:26;9.18;;;5.82;;
37983;SDS011;64625;50.882;4.376;2023-06-10T00:38:52;8.30;;;6.65;;
37983;SDS011;64625;50.882;4.376;2023-06-10T00:41:17;13.60;;;5.88;;
37983;SDS011;64625;50.882;4.376;2023-06-10T00:43:43;16.85;;;7.15;;
37983;SDS011;64625;50.882;4.376;2023-06-10T00:46:10;8.52;;;6.38;;
37983;SDS011;64625;50.882;4.376;2023-06-10T00:48:39;14.07;;;8.43;;
37983;SDS011;64625;50.882;4.376;2023-06-10T00:51:07;20.45;;;6.70;;
37983;SDS011;64625;50.882;4.376;2023-06-10T00:53:42;10.68;;;6.55;;
37983;SDS011;64625;50.882;4.376;2023-06-10T00:56:09;13.45;;;6.93;;
37983;SDS011;64625;50.882;4.376;2023-06-10T00:58:36;14.90;;;6.93;;
37983;SDS011;64625;50.882;4.376;2023-06-10T01:01:02;10.02;;;7.18;;
37983;SDS011;64625;50.882;4.376;2023-06-10T01:03:29;15.50;;;7.50;;
37983;SDS011;64625;50.882;4.376;2023-06-10T01:09:03;13.25;;;7.10;;
37983;SDS011;64625;50.882;4.376;2023-06-10T01:11:52;8.90;;;7.10;;
37983;SDS011;64625;50.882;4.376;2023-06-10T01:14:27;10.93;;;7.15;;
37983;SDS011;64625;50.882;4.376;2023-06-10T01:16:57;10.52;;;7.05;;
37983;SDS011;64625;50.882;4.376;2023-06-10T01:19:25;17.88;;;7.13;;
37983;SDS011;64625;50.882;4.376;2023-06-10T01:21:52;8.63;;;6.65;;
37983;SDS011;64625;50.882;4.376;2023-06-10T01:24:20;7.97;;;5.97;;
37983;SDS011;64625;50.882;4.376;2023-06-10T01:26:47;9.07;;;6.63;;
37983;SDS011;64625;50.882;4.376;2023-06-10T01:29:20;14.15;;;6.65;;
37983;SDS011;64625;50.882;4.376;2023-06-10T01:34:25;7.55;;;5.63;;
37983;SDS011;64625;50.882;4.376;2023-06-10T01:36:52;13.50;;;6.90;;
37983;SDS011;64625;50.882;4.376;2023-06-10T01:39:23;12.43;;;7.28;;
37983;SDS011;64625;50.882;4.376;2023-06-10T01:41:50;14.10;;;6.75;;
37983;SDS011;64625;50.882;4.376;2023-06-10T01:44:18;17.15;;;7.22;;
37983;SDS011;64625;50.882;4.376;2023-06-10T01:46:45;16.08;;;7.05;;
37983;SDS011;64625;50.882;4.376;2023-06-10T01:49:11;26.40;;;7.30;;
37983;SDS011;64625;50.882;4.376;2023-06-10T01:51:38;15.23;;;8.18;;
37983;SDS011;64625;50.882;4.376;2023-06-10T01:54:04;14.00;;;7.10;;
37983;SDS011;64625;50.882;4.376;2023-06-10T01:56:31;11.23;;;7.10;;
37983;SDS011;64625;50.882;4.376;2023-06-10T01:58:57;11.65;;;6.85;;
37983;SDS011;64625;50.882;4.376;2023-06-10T02:01:24;12.60;;;7.40;;
37983;SDS011;64625;50.882;4.376;2023-06-10T02:03:51;9.70;;;6.90;;
37983;SDS011;64625;50.882;4.376;2023-06-10T02:06:17;12.57;;;7.93;;
37983;SDS011;64625;50.882;4.376;2023-06-10T02:08:42;14.98;;;7.65;;
37983;SDS011;64625;50.882;4.376;2023-06-10T02:11:08;13.48;;;7.65;;
37983;SDS011;64625;50.882;4.376;2023-06-10T02:13:34;13.00;;;7.80;;
37983;SDS011;64625;50.882;4.376;2023-06-10T02:16:00;8.82;;;7.28;;
37983;SDS011;64625;50.882;4.376;2023-06-10T02:18:26;10.23;;;7.90;;
37983;SDS011;64625;50.882;4.376;2023-06-10T02:20:56;11.02;;;6.97;;
37983;SDS011;64625;50.882;4.376;2023-06-10T02:23:21;12.63;;;7.65;;
37983;SDS011;64625;50.882;4.376;2023-06-10T02:25:47;9.30;;;8.27;;
37983;SDS011;64625;50.882;4.376;2023-06-10T02:28:13;19.75;;;8.13;;
37983;SDS011;64625;50.882;4.376;2023-06-10T02:30:40;14.55;;;6.82;;
37983;SDS011;64625;50.882;4.376;2023-06-10T02:33:07;13.23;;;7.55;;
37983;SDS011;64625;50.882;4.376;2023-06-10T02:35:35;17.83;;;7.80;;
37983;SDS011;64625;50.882;4.376;2023-06-10T02:38:02;16.60;;;6.47;;
37983;SDS011;64625;50.882;4.376;2023-06-10T02:40:28;15.43;;;7.00;;
37983;SDS011;64625;50.882;4.376;2023-06-10T02:42:54;20.73;;;8.18;;
37983;SDS011;64625;50.882;4.376;2023-06-10T02:45:19;13.63;;;7.90;;
37983;SDS011;64625;50.882;4.376;2023-06-10T02:47:45;10.75;;;6.70;;
37983;SDS011;64625;50.882;4.376;2023-06-10T02:50:11;14.65;;;7.40;;
37983;SDS011;64625;50.882;4.376;2023-06-10T02:52:37;17.92;;;7.82;;
37983;SDS011;64625;50.882;4.376;2023-06-10T02:55:03;12.05;;;7.25;;
37983;SDS011;64625;50.882;4.376;2023-06-10T02:57:30;19.55;;;10.02;;
37983;SDS011;64625;50.882;4.376;2023-06-10T02:59:56;13.45;;;7.20;;
37983;SDS011;64625;50.882;4.376;2023-06-10T03:02:23;15.77;;;7.82;;
37983;SDS011;64625;50.882;4.376;2023-06-10T03:04:54;14.00;;;7.65;;
37983;SDS011;64625;50.882;4.376;2023-06-10T03:07:20;11.45;;;7.82;;
37983;SDS011;64625;50.882;4.376;2023-06-10T03:09:46;11.38;;;7.50;;
37983;SDS011;64625;50.882;4.376;2023-06-10T03:12:12;20.30;;;7.90;;
37983;SDS011;64625;50.882;4.376;2023-06-10T03:14:38;13.15;;;8.55;;
37983;SDS011;64625;50.882;4.376;2023-06-10T03:17:04;17.75;;;8.10;;
37983;SDS011;64625;50.882;4.376;2023-06-10T03:19:30;13.95;;;8.63;;
37983;SDS011;64625;50.882;4.376;2023-06-10T03:21:58;17.80;;;8.25;;
37983;SDS011;64625;50.882;4.376;2023-06-10T03:24:33;19.20;;;8.85;;
37983;SDS011;64625;50.882;4.376;2023-06-10T03:27:01;17.15;;;9.52;;
37983;SDS011;64625;50.882;4.376;2023-06-10T03:29:30;11.63;;;9.13;;
37983;SDS011;64625;50.882;4.376;2023-06-10T03:31:56;11.85;;;7.97;;
37983;SDS011;64625;50.882;4.376;2023-06-10T03:34:21;23.42;;;8.77;;
37983;SDS011;64625;50.882;4.376;2023-06-10T03:36:48;16.90;;;8.73;;
37983;SDS011;64625;50.882;4.376;2023-06-10T03:39:14;16.48;;;8.43;;
37983;SDS011;64625;50.882;4.376;2023-06-10T03:41:41;19.48;;;9.57;;
37983;SDS011;64625;50.882;4.376;2023-06-10T03:44:06;14.77;;;8.32;;
37983;SDS011;64625;50.882;4.376;2023-06-10T03:46:32;18.20;;;9.38;;
37983;SDS011;64625;50.882;4.376;2023-06-10T03:48:58;16.17;;;9.18;;
37983;SDS011;64625;50.882;4.376;2023-06-10T03:51:26;17.00;;;8.77;;
37983;SDS011;64625;50.882;4.376;2023-06-10T03:53:52;14.48;;;8.50;;
37983;SDS011;64625;50.882;4.376;2023-06-10T03:56:18;19.40;;;8.70;;
37983;SDS011;64625;50.882;4.376;2023-06-10T03:58:43;15.32;;;9.45;;
37983;SDS011;64625;50.882;4.376;2023-06-10T04:01:09;12.05;;;8.77;;
37983;SDS011;64625;50.882;4.376;2023-06-10T04:03:35;21.25;;;9.38;;
37983;SDS011;64625;50.882;4.376;2023-06-10T04:06:01;14.73;;;8.52;;
37983;SDS011;64625;50.882;4.376;2023-06-10T04:08:27;23.10;;;9.73;;
37983;SDS011;64625;50.882;4.376;2023-06-10T04:10:54;17.75;;;9.15;;
37983;SDS011;64625;50.882;4.376;2023-06-10T04:13:19;18.75;;;8.75;;
37983;SDS011;64625;50.882;4.376;2023-06-10T04:15:45;19.85;;;9.23;;
37983;SDS011;64625;50.882;4.376;2023-06-10T04:18:11;12.20;;;9.05;;
37983;SDS011;64625;50.882;4.376;2023-06-10T04:20:37;16.35;;;10.05;;
37983;SDS011;64625;50.882;4.376;2023-06-10T04:23:03;20.42;;;10.57;;
37983;SDS011;64625;50.882;4.376;2023-06-10T04:25:31;17.08;;;10.95;;
37983;SDS011;64625;50.882;4.376;2023-06-10T04:27:57;24.13;;;10.95;;
37983;SDS011;64625;50.882;4.376;2023-06-10T04:30:26;18.70;;;9.43;;
37983;SDS011;64625;50.882;4.376;2023-06-10T04:32:51;17.33;;;9.57;;
37983;SDS011;64625;50.882;4.376;2023-06-10T04:35:17;17.52;;;10.23;;
37983;SDS011;64625;50.882;4.376;2023-06-10T04:37:43;23.15;;;10.25;;
37983;SDS011;64625;50.882;4.376;2023-06-10T04:40:09;18.92;;;9.80;;
37983;SDS011;64625;50.882;4.376;2023-06-10T04:42:35;16.70;;;9.75;;
37983;SDS011;64625;50.882;4.376;2023-06-10T04:45:01;17.60;;;9.18;;
37983;SDS011;64625;50.882;4.376;2023-06-10T04:47:29;18.73;;;10.82;;
37983;SDS011;64625;50.882;4.376;2023-06-10T04:49:58;17.70;;;9.07;;
37983;SDS011;64625;50.882;4.376;2023-06-10T04:52:25;27.58;;;10.40;;
37983;SDS011;64625;50.882;4.376;2023-06-10T04:54:51;21.52;;;10.27;;
37983;SDS011;64625;50.882;4.376;2023-06-10T04:57:16;22.23;;;9.82;;
37983;SDS011;64625;50.882;4.376;2023-06-10T04:59:42;22.75;;;9.82;;
37983;SDS011;64625;50.882;4.376;2023-06-10T05:02:08;23.60;;;9.95;;
37983;SDS011;64625;50.882;4.376;2023-06-10T05:04:34;14.75;;;9.90;;
37983;SDS011;64625;50.882;4.376;2023-06-10T05:07:01;23.55;;;11.13;;
37983;SDS011;64625;50.882;4.376;2023-06-10T05:09:27;25.77;;;11.07;;
37983;SDS011;64625;50.882;4.376;2023-06-10T05:11:53;17.20;;;10.63;;
37983;SDS011;64625;50.882;4.376;2023-06-10T05:14:19;13.82;;;10.15;;
37983;SDS011;64625;50.882;4.376;2023-06-10T05:16:46;17.90;;;9.50;;
37983;SDS011;64625;50.882;4.376;2023-06-10T05:19:13;17.40;;;9.98;;
37983;SDS011;64625;50.882;4.376;2023-06-10T05:21:38;21.10;;;10.38;;
37983;SDS011;64625;50.882;4.376;2023-06-10T05:24:04;18.48;;;10.20;;
37983;SDS011;64625;50.882;4.376;2023-06-10T05:26:31;14.55;;;9.02;;
37983;SDS011;64625;50.882;4.376;2023-06-10T05:28:58;20.33;;;9.70;;
37983;SDS011;64625;50.882;4.376;2023-06-10T05:31:24;20.08;;;9.20;;
37983;SDS011;64625;50.882;4.376;2023-06-10T05:33:49;14.85;;;9.48;;
37983;SDS011;64625;50.882;4.376;2023-06-10T05:36:15;19.33;;;10.10;;
37983;SDS011;64625;50.882;4.376;2023-06-10T05:38:41;19.05;;;9.45;;
37983;SDS011;64625;50.882;4.376;2023-06-10T05:41:07;14.55;;;9.57;;
37983;SDS011;64625;50.882;4.376;2023-06-10T05:43:32;21.88;;;10.40;;
37983;SDS011;64625;50.882;4.376;2023-06-10T05:46:01;15.95;;;9.23;;
37983;SDS011;64625;50.882;4.376;2023-06-10T05:48:27;23.70;;;10.30;;
37983;SDS011;64625;50.882;4.376;2023-06-10T05:50:52;14.57;;;8.30;;
37983;SDS011;64625;50.882;4.376;2023-06-10T05:53:18;15.60;;;9.05;;
37983;SDS011;64625;50.882;4.376;2023-06-10T05:55:44;15.80;;;9.00;;
37983;SDS011;64625;50.882;4.376;2023-06-10T05:58:11;18.15;;;11.55;;
37983;SDS011;64625;50.882;4.376;2023-06-10T06:00:38;35.08;;;9.23;;
37983;SDS011;64625;50.882;4.376;2023-06-10T06:03:08;20.30;;;9.38;;
37983;SDS011;64625;50.882;4.376;2023-06-10T06:05:34;17.05;;;10.05;;
37983;SDS011;64625;50.882;4.376;2023-06-10T06:08:02;24.38;;;9.15;;
37983;SDS011;64625;50.882;4.376;2023-06-10T06:10:31;18.85;;;9.32;;
37983;SDS011;64625;50.882;4.376;2023-06-10T06:12:57;17.15;;;9.00;;
37983;SDS011;64625;50.882;4.376;2023-06-10T06:15:23;13.93;;;9.10;;
37983;SDS011;64625;50.882;4.376;2023-06-10T06:17:49;11.38;;;8.02;;
37983;SDS011;64625;50.882;4.376;2023-06-10T06:20:18;18.50;;;8.43;;
37983;SDS011;64625;50.882;4.376;2023-06-10T06:22:44;12.18;;;8.00;;
37983;SDS011;64625;50.882;4.376;2023-06-10T06:25:10;15.05;;;8.27;;
37983;SDS011;64625;50.882;4.376;2023-06-10T06:27:36;12.48;;;8.43;;
37983;SDS011;64625;50.882;4.376;2023-06-10T06:30:02;19.13;;;9.32;;
37983;SDS011;64625;50.882;4.376;2023-06-10T06:32:28;17.27;;;8.90;;
37983;SDS011;64625;50.882;4.376;2023-06-10T06:34:54;16.15;;;9.50;;
37983;SDS011;64625;50.882;4.376;2023-06-10T06:37:23;11.45;;;8.48;;
37983;SDS011;64625;50.882;4.376;2023-06-10T06:39:50;13.27;;;8.98;;
37983;SDS011;64625;50.882;4.376;2023-06-10T06:42:17;15.48;;;8.45;;
37983;SDS011;64625;50.882;4.376;2023-06-10T06:44:42;15.75;;;8.15;;
37983;SDS011;64625;50.882;4.376;2023-06-10T06:47:08;13.55;;;8.25;;
37983;SDS011;64625;50.882;4.376;2023-06-10T06:49:34;20.67;;;8.30;;
37983;SDS011;64625;50.882;4.376;2023-06-10T06:52:00;25.13;;;9.32;;
37983;SDS011;64625;50.882;4.376;2023-06-10T06:54:27;17.95;;;8.80;;
37983;SDS011;64625;50.882;4.376;2023-06-10T06:56:52;14.05;;;8.00;;
37983;SDS011;64625;50.882;4.376;2023-06-10T06:59:18;11.10;;;8.00;;
37983;SDS011;64625;50.882;4.376;2023-06-10T07:01:45;12.50;;;8.60;;
37983;SDS011;64625;50.882;4.376;2023-06-10T07:04:11;9.38;;;7.60;;
37983;SDS011;64625;50.882;4.376;2023-06-10T07:06:40;10.32;;;7.50;;
37983;SDS011;64625;50.882;4.376;2023-06-10T07:09:07;16.10;;;7.60;;
37983;SDS011;64625;50.882;4.376;2023-06-10T07:11:34;31.23;;;19.48;;
37983;SDS011;64625;50.882;4.376;2023-06-10T07:14:00;14.30;;;8.85;;
37983;SDS011;64625;50.882;4.376;2023-06-10T07:16:25;12.02;;;7.70;;
37983;SDS011;64625;50.882;4.376;2023-06-10T07:18:52;20.23;;;8.57;;
37983;SDS011;64625;50.882;4.376;2023-06-10T07:21:18;15.80;;;7.70;;
37983;SDS011;64625;50.882;4.376;2023-06-10T07:23:44;19.05;;;7.65;;
37983;SDS011;64625;50.882;4.376;2023-06-10T07:26:11;10.35;;;7.57;;
37983;SDS011;64625;50.882;4.376;2023-06-10T07:28:39;11.15;;;7.28;;
37983;SDS011;64625;50.882;4.376;2023-06-10T07:31:05;16.05;;;8.48;;
37983;SDS011;64625;50.882;4.376;2023-06-10T07:33:32;13.90;;;7.20;;
37983;SDS011;64625;50.882;4.376;2023-06-10T07:35:57;9.55;;;7.03;;
37983;SDS011;64625;50.882;4.376;2023-06-10T07:38:24;18.35;;;8.50;;
37983;SDS011;64625;50.882;4.376;2023-06-10T07:40:50;13.48;;;8.23;;
37983;SDS011;64625;50.882;4.376;2023-06-10T07:43:17;11.18;;;5.75;;
37983;SDS011;64625;50.882;4.376;2023-06-10T07:45:43;9.90;;;6.15;;
37983;SDS011;64625;50.882;4.376;2023-06-10T07:48:09;14.70;;;6.22;;
37983;SDS011;64625;50.882;4.376;2023-06-10T07:50:35;12.35;;;5.70;;
37983;SDS011;64625;50.882;4.376;2023-06-10T07:53:01;12.68;;;8.30;;
37983;SDS011;64625;50.882;4.376;2023-06-10T07:55:27;15.20;;;8.85;;
37983;SDS011;64625;50.882;4.376;2023-06-10T07:57:53;9.10;;;6.70;;
37983;SDS011;64625;50.882;4.376;2023-06-10T08:00:21;13.20;;;7.18;;
37983;SDS011;64625;50.882;4.376;2023-06-10T08:02:46;13.02;;;6.25;;
37983;SDS011;64625;50.882;4.376;2023-06-10T08:05:12;7.05;;;6.35;;
37983;SDS011;64625;50.882;4.376;2023-06-10T08:07:40;13.65;;;6.13;;
37983;SDS011;64625;50.882;4.376;2023-06-10T08:10:06;8.77;;;5.95;;
37983;SDS011;64625;50.882;4.376;2023-06-10T08:12:33;14.35;;;6.72;;
37983;SDS011;64625;50.882;4.376;2023-06-10T08:14:59;7.97;;;5.38;;
37983;SDS011;64625;50.882;4.376;2023-06-10T08:17:26;9.93;;;5.78;;
37983;SDS011;64625;50.882;4.376;2023-06-10T08:19:52;18.13;;;6.60;;
37983;SDS011;64625;50.882;4.376;2023-06-10T08:22:18;10.65;;;5.43;;
37983;SDS011;64625;50.882;4.376;2023-06-10T08:24:43;10.68;;;6.07;;
37983;SDS011;64625;50.882;4.376;2023-06-10T08:27:09;11.70;;;5.75;;
37983;SDS011;64625;50.882;4.376;2023-06-10T08:29:35;7.90;;;5.78;;
37983;SDS011;64625;50.882;4.376;2023-06-10T08:32:01;8.73;;;5.82;;
37983;SDS011;64625;50.882;4.376;2023-06-10T08:34:28;9.25;;;6.30;;
37983;SDS011;64625;50.882;4.376;2023-06-10T08:36:54;8.88;;;5.80;;
37983;SDS011;64625;50.882;4.376;2023-06-10T08:39:20;9.93;;;5.50;;
37983;SDS011;64625;50.882;4.376;2023-06-10T08:44:48;8.35;;;5.25;;
37983;SDS011;64625;50.882;4.376;2023-06-10T08:47:19;6.72;;;5.25;;
37983;SDS011;64625;50.882;4.376;2023-06-10T08:49:47;10.63;;;5.57;;
37983;SDS011;64625;50.882;4.376;2023-06-10T08:52:16;12.55;;;5.65;;
37983;SDS011;64625;50.882;4.376;2023-06-10T08:54:54;7.07;;;5.32;;
37983;SDS011;64625;50.882;4.376;2023-06-10T08:57:24;7.82;;;5.50;;
37983;SDS011;64625;50.882;4.376;2023-06-10T08:59:52;13.27;;;5.32;;
37983;SDS011;64625;50.882;4.376;2023-06-10T09:02:20;10.98;;;5.20;;
37983;SDS011;64625;50.882;4.376;2023-06-10T09:04:47;11.82;;;5.47;;
37983;SDS011;64625;50.882;4.376;2023-06-10T09:07:15;10.23;;;5.68;;
37983;SDS011;64625;50.882;4.376;2023-06-10T09:09:42;15.73;;;6.55;;
37983;SDS011;64625;50.882;4.376;2023-06-10T09:12:09;5.47;;;4.75;;
37983;SDS011;64625;50.882;4.376;2023-06-10T09:14:36;12.90;;;5.70;;
37983;SDS011;64625;50.882;4.376;2023-06-10T09:17:03;9.35;;;5.18;;
37983;SDS011;64625;50.882;4.376;2023-06-10T09:19:30;6.35;;;4.70;;
37983;SDS011;64625;50.882;4.376;2023-06-10T09:21:56;7.95;;;4.63;;
37983;SDS011;64625;50.882;4.376;2023-06-10T09:24:22;7.28;;;5.25;;
37983;SDS011;64625;50.882;4.376;2023-06-10T09:26:49;9.70;;;4.85;;
37983;SDS011;64625;50.882;4.376;2023-06-10T09:29:16;6.57;;;5.38;;
37983;SDS011;64625;50.882;4.376;2023-06-10T09:31:43;14.85;;;5.65;;
37983;SDS011;64625;50.882;4.376;2023-06-10T09:36:36;7.85;;;5.40;;
37983;SDS011;64625;50.882;4.376;2023-06-10T09:39:03;8.35;;;4.93;;
37983;SDS011;64625;50.882;4.376;2023-06-10T09:41:33;10.30;;;5.10;;
37983;SDS011;64625;50.882;4.376;2023-06-10T09:44:01;8.00;;;4.75;;
37983;SDS011;64625;50.882;4.376;2023-06-10T09:46:31;8.68;;;5.57;;
37983;SDS011;64625;50.882;4.376;2023-06-10T09:49:00;8.88;;;5.15;;
37983;SDS011;64625;50.882;4.376;2023-06-10T09:51:25;9.45;;;5.35;;
37983;SDS011;64625;50.882;4.376;2023-06-10T09:53:51;12.80;;;4.68;;
37983;SDS011;64625;50.882;4.376;2023-06-10T09:56:18;8.13;;;4.72;;
37983;SDS011;64625;50.882;4.376;2023-06-10T09:58:45;9.65;;;6.65;;
37983;SDS011;64625;50.882;4.376;2023-06-10T10:01:12;4.97;;;4.32;;
37983;SDS011;64625;50.882;4.376;2023-06-10T10:03:43;9.52;;;5.00;;
37983;SDS011;64625;50.882;4.376;2023-06-10T10:06:11;11.77;;;5.15;;
37983;SDS011;64625;50.882;4.376;2023-06-10T10:08:38;6.70;;;4.40;;
37983;SDS011;64625;50.882;4.376;2023-06-10T10:11:04;7.30;;;4.53;;
37983;SDS011;64625;50.882;4.376;2023-06-10T10:13:31;6.95;;;4.22;;
37983;SDS011;64625;50.882;4.376;2023-06-10T10:16:01;7.60;;;4.78;;
37983;SDS011;64625;50.882;4.376;2023-06-10T10:18:35;8.60;;;5.72;;
37983;SDS011;64625;50.882;4.376;2023-06-10T10:21:07;7.93;;;4.88;;
37983;SDS011;64625;50.882;4.376;2023-06-10T10:23:43;6.32;;;4.90;;
37983;SDS011;64625;50.882;4.376;2023-06-10T10:26:21;10.82;;;5.30;;
37983;SDS011;64625;50.882;4.376;2023-06-10T10:31:34;7.15;;;4.60;;
37983;SDS011;64625;50.882;4.376;2023-06-10T10:34:05;11.00;;;5.60;;
37983;SDS011;64625;50.882;4.376;2023-06-10T10:36:34;8.95;;;4.85;;
37983;SDS011;64625;50.882;4.376;2023-06-10T10:39:06;5.68;;;4.60;;
37983;SDS011;64625;50.882;4.376;2023-06-10T10:41:32;9.45;;;4.03;;
37983;SDS011;64625;50.882;4.376;2023-06-10T10:44:01;12.25;;;5.70;;
37983;SDS011;64625;50.882;4.376;2023-06-10T10:46:30;7.15;;;5.25;;
37983;SDS011;64625;50.882;4.376;2023-06-10T10:49:07;7.20;;;4.82;;
37983;SDS011;64625;50.882;4.376;2023-06-10T10:51:34;7.10;;;4.70;;
37983;SDS011;64625;50.882;4.376;2023-06-10T10:54:10;9.98;;;4.18;;
37983;SDS011;64625;50.882;4.376;2023-06-10T10:56:38;11.38;;;5.28;;
37983;SDS011;64625;50.882;4.376;2023-06-10T10:59:04;4.50;;;4.07;;
37983;SDS011;64625;50.882;4.376;2023-06-10T11:01:43;6.63;;;4.72;;
37983;SDS011;64625;50.882;4.376;2023-06-10T11:04:11;9.60;;;5.40;;
37983;SDS011;64625;50.882;4.376;2023-06-10T11:06:38;28.10;;;7.20;;
37983;SDS011;64625;50.882;4.376;2023-06-10T11:09:24;8.65;;;4.97;;
37983;SDS011;64625;50.882;4.376;2023-06-10T11:11:57;6.78;;;4.40;;
37983;SDS011;64625;50.882;4.376;2023-06-10T11:14:30;11.00;;;4.13;;
37983;SDS011;64625;50.882;4.376;2023-06-10T11:16:58;5.40;;;3.97;;
37983;SDS011;64625;50.882;4.376;2023-06-10T11:19:31;5.25;;;4.20;;
37983;SDS011;64625;50.882;4.376;2023-06-10T11:22:02;10.55;;;4.82;;
37983;SDS011;64625;50.882;4.376;2023-06-10T11:24:30;5.47;;;3.95;;
37983;SDS011;64625;50.882;4.376;2023-06-10T11:27:16;9.63;;;4.78;;
37983;SDS011;64625;50.882;4.376;2023-06-10T11:29:55;8.15;;;4.85;;
37983;SDS011;64625;50.882;4.376;2023-06-10T11:32:23;12.80;;;5.10;;
37983;SDS011;64625;50.882;4.376;2023-06-10T11:34:55;6.03;;;4.97;;
37983;SDS011;64625;50.882;4.376;2023-06-10T11:37:21;5.63;;;4.95;;
37983;SDS011;64625;50.882;4.376;2023-06-10T11:39:47;9.82;;;5.07;;
37983;SDS011;64625;50.882;4.376;2023-06-10T11:42:17;5.53;;;4.55;;
37983;SDS011;64625;50.882;4.376;2023-06-10T11:44:50;10.35;;;5.03;;
37983;SDS011;64625;50.882;4.376;2023-06-10T11:47:17;9.55;;;5.10;;
37983;SDS011;64625;50.882;4.376;2023-06-10T11:49:44;10.95;;;4.57;;
37983;SDS011;64625;50.882;4.376;2023-06-10T11:52:10;8.55;;;5.18;;
37983;SDS011;64625;50.882;4.376;2023-06-10T11:54:37;5.60;;;4.32;;
37983;SDS011;64625;50.882;4.376;2023-06-10T11:57:03;6.75;;;4.95;;
37983;SDS011;64625;50.882;4.376;2023-06-10T11:59:29;13.23;;;4.95;;
37983;SDS011;64625;50.882;4.376;2023-06-10T12:01:55;7.93;;;5.47;;
37983;SDS011;64625;50.882;4.376;2023-06-10T12:04:22;13.52;;;7.22;;
37983;SDS011;64625;50.882;4.376;2023-06-10T12:06:48;13.55;;;6.35;;
37983;SDS011;64625;50.882;4.376;2023-06-10T12:11:44;13.55;;;6.30;;
37983;SDS011;64625;50.882;4.376;2023-06-10T12:14:13;9.48;;;5.38;;
37983;SDS011;64625;50.882;4.376;2023-06-10T12:16:39;12.90;;;5.28;;
37983;SDS011;64625;50.882;4.376;2023-06-10T12:19:05;11.65;;;4.95;;
37983;SDS011;64625;50.882;4.376;2023-06-10T12:21:32;8.20;;;4.60;;
37983;SDS011;64625;50.882;4.376;2023-06-10T12:24:03;6.50;;;4.70;;
37983;SDS011;64625;50.882;4.376;2023-06-10T12:26:42;6.88;;;4.82;;
37983;SDS011;64625;50.882;4.376;2023-06-10T12:29:23;9.77;;;4.90;;
37983;SDS011;64625;50.882;4.376;2023-06-10T12:34:33;7.85;;;5.05;;
37983;SDS011;64625;50.882;4.376;2023-06-10T12:37:11;14.60;;;6.20;;
37983;SDS011;64625;50.882;4.376;2023-06-10T12:39:41;9.23;;;5.35;;
37983;SDS011;64625;50.882;4.376;2023-06-10T12:42:12;15.90;;;4.80;;
37983;SDS011;64625;50.882;4.376;2023-06-10T12:44:38;12.18;;;4.72;;
37983;SDS011;64625;50.882;4.376;2023-06-10T12:47:12;5.63;;;4.03;;
37983;SDS011;64625;50.882;4.376;2023-06-10T12:49:38;6.47;;;5.18;;
37983;SDS011;64625;50.882;4.376;2023-06-10T12:52:05;8.27;;;5.53;;
37983;SDS011;64625;50.882;4.376;2023-06-10T12:54:32;5.13;;;3.80;;
37983;SDS011;64625;50.882;4.376;2023-06-10T12:56:59;10.52;;;5.13;;
37983;SDS011;64625;50.882;4.376;2023-06-10T12:59:26;6.57;;;4.38;;
37983;SDS011;64625;50.882;4.376;2023-06-10T13:01:55;7.45;;;4.80;;
37983;SDS011;64625;50.882;4.376;2023-06-10T13:04:21;6.60;;;5.07;;
37983;SDS011;64625;50.882;4.376;2023-06-10T13:06:51;5.53;;;4.57;;
37983;SDS011;64625;50.882;4.376;2023-06-10T13:09:17;6.43;;;4.97;;
37983;SDS011;64625;50.882;4.376;2023-06-10T13:11:43;7.43;;;5.15;;
37983;SDS011;64625;50.882;4.376;2023-06-10T13:14:10;8.60;;;5.40;;
37983;SDS011;64625;50.882;4.376;2023-06-10T13:16:36;9.68;;;5.65;;
37983;SDS011;64625;50.882;4.376;2023-06-10T13:19:03;8.98;;;4.13;;
37983;SDS011;64625;50.882;4.376;2023-06-10T13:21:31;9.20;;;5.03;;
37983;SDS011;64625;50.882;4.376;2023-06-10T13:23:58;9.32;;;4.82;;
37983;SDS011;64625;50.882;4.376;2023-06-10T13:26:24;6.30;;;5.15;;
37983;SDS011;64625;50.882;4.376;2023-06-10T13:28:50;11.63;;;5.45;;
37983;SDS011;64625;50.882;4.376;2023-06-10T13:31:15;6.43;;;4.65;;
37983;SDS011;64625;50.882;4.376;2023-06-10T13:33:44;7.28;;;4.35;;
37983;SDS011;64625;50.882;4.376;2023-06-10T13:36:11;5.25;;;4.22;;
37983;SDS011;64625;50.882;4.376;2023-06-10T13:38:37;14.70;;;5.88;;
37983;SDS011;64625;50.882;4.376;2023-06-10T13:41:03;10.80;;;4.85;;
37983;SDS011;64625;50.882;4.376;2023-06-10T13:43:29;11.25;;;4.88;;
37983;SDS011;64625;50.882;4.376;2023-06-10T13:45:55;7.55;;;4.57;;
37983;SDS011;64625;50.882;4.376;2023-06-10T13:48:20;10.70;;;5.57;;
37983;SDS011;64625;50.882;4.376;2023-06-10T13:50:46;14.68;;;4.45;;
37983;SDS011;64625;50.882;4.376;2023-06-10T13:53:12;10.50;;;4.82;;
37983;SDS011;64625;50.882;4.376;2023-06-10T13:55:38;7.40;;;5.05;;
37983;SDS011;64625;50.882;4.376;2023-06-10T13:58:04;5.78;;;4.68;;
37983;SDS011;64625;50.882;4.376;2023-06-10T14:00:30;11.68;;;4.65;;
37983;SDS011;64625;50.882;4.376;2023-06-10T14:02:56;6.43;;;4.07;;
37983;SDS011;64625;50.882;4.376;2023-06-10T14:05:22;11.27;;;5.70;;
37983;SDS011;64625;50.882;4.376;2023-06-10T14:07:48;6.65;;;5.07;;
37983;SDS011;64625;50.882;4.376;2023-06-10T14:10:14;8.18;;;4.40;;
37983;SDS011;64625;50.882;4.376;2023-06-10T14:12:39;9.65;;;5.75;;
37983;SDS011;64625;50.882;4.376;2023-06-10T14:15:05;10.15;;;4.18;;
37983;SDS011;64625;50.882;4.376;2023-06-10T14:17:32;5.75;;;4.85;;
37983;SDS011;64625;50.882;4.376;2023-06-10T14:19:58;5.80;;;4.55;;
37983;SDS011;64625;50.882;4.376;2023-06-10T14:22:24;5.50;;;4.35;;
37983;SDS011;64625;50.882;4.376;2023-06-10T14:24:53;4.63;;;4.22;;
37983;SDS011;64625;50.882;4.376;2023-06-10T14:27:19;6.07;;;4.55;;
37983;SDS011;64625;50.882;4.376;2023-06-10T14:29:46;14.32;;;5.03;;
37983;SDS011;64625;50.882;4.376;2023-06-10T14:32:12;11.48;;;4.78;;
37983;SDS011;64625;50.882;4.376;2023-06-10T14:34:41;5.95;;;4.95;;
37983;SDS011;64625;50.882;4.376;2023-06-10T14:37:09;6.18;;;4.20;;
37983;SDS011;64625;50.882;4.376;2023-06-10T14:39:35;12.32;;;5.57;;
37983;SDS011;64625;50.882;4.376;2023-06-10T14:42:01;9.93;;;4.95;;
37983;SDS011;64625;50.882;4.376;2023-06-10T14:44:28;10.55;;;5.18;;
37983;SDS011;64625;50.882;4.376;2023-06-10T14:46:54;7.50;;;4.35;;
37983;SDS011;64625;50.882;4.376;2023-06-10T14:49:20;8.70;;;4.60;;
37983;SDS011;64625;50.882;4.376;2023-06-10T14:51:46;8.02;;;4.50;;
37983;SDS011;64625;50.882;4.376;2023-06-10T14:54:13;10.93;;;4.13;;
37983;SDS011;64625;50.882;4.376;2023-06-10T14:56:38;8.98;;;4.18;;
37983;SDS011;64625;50.882;4.376;2023-06-10T14:59:04;5.82;;;4.72;;